Time;durP1;ratioP1;P1;durP2;ratioP2;P2;SDS_P1;SDS_P2;PMS_P1;PMS_P2;Temp;Humidity;BMP_temperature;BMP_pressure;BME280_temperature;BME280_humidity;BME280_pressure;Samples;Min_cycle;Max_cycle;Signal;HPM_P1;HPM_P2
2023/04/11 00:00:17;;;;;;;20.55;4.18;;;;;;;11.15;73.33;100822.88;5074985;28;20020;-88
2023/04/11 00:02:43;;;;;;;12.55;3.88;;;;;;;11.09;73.04;100802.81;5078977;28;20027;-88
2023/04/11 00:05:09;;;;;;;22.73;5.38;;;;;;;11.12;72.61;100810.63;5084581;28;20034;-88
2023/04/11 00:07:34;;;;;;;13.27;4.07;;;;;;;11.08;72.96;100816.13;5088527;28;20032;-87
2023/04/11 00:10:01;;;;;;;18.83;3.92;;;;;;;11.02;72.94;100801.38;5075098;28;20028;-88
2023/04/11 00:12:26;;;;;;;17.38;4.40;;;;;;;11.03;73.10;100815.47;5084605;28;20052;-87
2023/04/11 00:14:52;;;;;;;20.77;4.97;;;;;;;11.07;72.59;100820.56;5081388;28;20578;-89
2023/04/11 00:17:19;;;;;;;28.42;5.88;;;;;;;11.05;72.41;100822.41;5094083;28;20119;-89
2023/04/11 00:19:45;;;;;;;20.60;4.53;;;;;;;11.05;72.72;100817.13;5078528;28;20035;-88
2023/04/11 00:22:16;;;;;;;23.85;5.00;;;;;;;11.01;73.04;100818.19;5079103;28;20512;-88
2023/04/11 00:24:42;;;;;;;23.55;5.53;;;;;;;10.95;72.94;100815.78;5087747;28;20036;-86
2023/04/11 00:27:07;;;;;;;22.77;5.22;;;;;;;10.88;73.05;100814.31;5077672;28;20498;-87
2023/04/11 00:29:34;;;;;;;24.60;5.22;;;;;;;10.86;73.41;100821.44;5079412;28;20420;-86
2023/04/11 00:31:59;;;;;;;15.93;4.65;;;;;;;10.68;73.38;100794.88;5083142;28;20103;-88
2023/04/11 00:34:26;;;;;;;19.65;5.10;;;;;;;10.68;73.43;100821.31;5081925;28;20125;-88
2023/04/11 00:36:51;;;;;;;16.65;4.38;;;;;;;10.70;73.21;100819.44;5076587;28;20495;-87
2023/04/11 00:39:17;;;;;;;26.88;6.10;;;;;;;10.56;73.30;100821.78;5087125;28;20021;-86
2023/04/11 00:41:42;;;;;;;25.08;5.90;;;;;;;10.53;73.78;100829.84;5082805;28;20036;-88
2023/04/11 00:44:09;;;;;;;21.10;5.65;;;;;;;10.44;74.04;100828.44;5082271;28;20391;-88
2023/04/11 00:46:34;;;;;;;25.75;5.28;;;;;;;10.40;73.74;100818.06;5073514;28;20036;-88
2023/04/11 00:49:00;;;;;;;23.13;5.63;;;;;;;10.40;73.96;100826.84;5078591;28;20024;-88
2023/04/11 00:51:26;;;;;;;25.42;5.25;;;;;;;10.36;74.20;100824.38;5078411;28;20035;-88
2023/04/11 00:53:51;;;;;;;20.77;5.28;;;;;;;10.46;73.88;100831.00;5078031;28;20518;-88
2023/04/11 00:56:17;;;;;;;22.25;5.22;;;;;;;10.37;73.81;100820.81;5083227;28;20115;-88
2023/04/11 00:58:42;;;;;;;16.92;4.82;;;;;;;10.26;74.66;100809.78;5070688;28;20028;-87
2023/04/11 01:01:08;;;;;;;24.88;6.18;;;;;;;10.36;74.25;100822.59;5073905;28;20126;-88
2023/04/11 01:03:40;;;;;;;27.17;6.93;;;;;;;10.48;73.85;100808.00;5077974;28;20023;-88
2023/04/11 01:06:07;;;;;;;19.33;5.93;;;;;;;10.57;73.36;100815.56;5079462;28;20115;-88
2023/04/11 01:08:35;;;;;;;22.67;6.10;;;;;;;10.60;73.13;100809.31;5086277;28;20107;-88
2023/04/11 01:11:04;;;;;;;25.40;5.03;;;;;;;10.62;73.13;100818.03;5078504;28;20084;-87
2023/04/11 01:13:32;;;;;;;24.77;5.60;;;;;;;10.58;72.75;100812.00;5079624;28;20406;-88
2023/04/11 01:15:58;;;;;;;21.85;5.22;;;;;;;10.56;72.62;100800.66;5076720;28;20031;-88
2023/04/11 01:18:24;;;;;;;20.13;4.70;;;;;;;10.51;73.16;100809.69;5081844;28;20041;-88
2023/04/11 01:20:50;;;;;;;28.15;4.80;;;;;;;10.58;72.59;100814.66;5080245;28;20021;-88
2023/04/11 01:23:26;;;;;;;16.45;4.00;;;;;;;10.58;73.29;100816.44;5078500;28;20552;-88
2023/04/11 01:25:51;;;;;;;23.30;4.72;;;;;;;10.51;73.09;100807.03;5084075;28;20024;-88
2023/04/11 01:28:18;;;;;;;21.58;4.90;;;;;;;10.50;73.26;100818.53;5082455;28;20028;-88
2023/04/11 01:30:43;;;;;;;25.00;5.43;;;;;;;10.48;73.21;100819.44;5079199;28;20081;-87
2023/04/11 01:33:10;;;;;;;14.77;3.45;;;;;;;10.43;73.41;100809.97;5075516;28;20130;-87
2023/04/11 01:35:35;;;;;;;21.58;4.55;;;;;;;10.40;73.07;100808.34;5083105;28;20021;-88
2023/04/11 01:38:02;;;;;;;25.45;5.50;;;;;;;10.32;73.52;100814.84;5071317;28;20020;-88
2023/04/11 01:40:28;;;;;;;17.17;3.83;;;;;;;10.43;73.42;100820.56;5083487;28;20127;-87
2023/04/11 01:42:54;;;;;;;21.92;5.45;;;;;;;10.48;72.93;100830.00;5073638;28;20028;-88
2023/04/11 01:45:20;;;;;;;21.33;4.68;;;;;;;10.21;74.33;100844.28;5070560;28;21493;-88
2023/04/11 01:47:46;;;;;;;22.35;4.40;;;;;;;10.13;74.15;100841.94;5071032;28;21949;-88
2023/04/11 01:50:11;;;;;;;19.17;4.78;;;;;;;10.03;74.57;100845.00;5072953;28;20031;-88
2023/04/11 01:52:36;;;;;;;19.15;4.72;;;;;;;10.10;73.94;100839.41;5085636;28;20467;-88
2023/04/11 01:55:02;;;;;;;25.63;4.82;;;;;;;10.05;74.01;100844.00;5075124;28;20028;-87
2023/04/11 01:57:28;;;;;;;18.70;4.00;;;;;;;9.95;73.89;100840.88;5072031;28;20565;-88
2023/04/11 01:59:53;;;;;;;20.70;3.92;;;;;;;10.06;74.40;100858.06;5077818;28;20029;-88
2023/04/11 02:02:18;;;;;;;23.42;4.90;;;;;;;10.05;74.01;100853.72;5079005;28;20487;-88
2023/04/11 02:04:43;;;;;;;22.77;5.05;;;;;;;9.99;73.88;100851.31;5072639;28;20024;-88
2023/04/11 02:07:09;;;;;;;23.38;4.68;;;;;;;10.00;74.08;100851.25;5074298;28;20777;-88
2023/04/11 02:09:35;;;;;;;20.73;4.47;;;;;;;10.05;74.19;100867.78;5098424;28;20021;-88
2023/04/11 02:12:00;;;;;;;26.77;4.82;;;;;;;9.90;74.11;100842.81;5081482;28;20400;-87
2023/04/11 02:14:26;;;;;;;17.95;4.55;;;;;;;10.01;74.06;100858.25;5084009;28;20123;-87
2023/04/11 02:16:53;;;;;;;29.52;6.50;;;;;;;10.08;74.34;100870.31;5077317;28;20028;-87
2023/04/11 02:19:20;;;;;;;26.25;5.32;;;;;;;10.10;74.06;100871.13;5076665;28;20591;-88
2023/04/11 02:21:45;;;;;;;21.55;4.65;;;;;;;9.93;74.00;100858.56;5084847;28;20364;-87
2023/04/11 02:24:11;;;;;;;25.40;5.32;;;;;;;10.03;73.77;100868.78;5083529;28;20053;-88
2023/04/11 02:26:36;;;;;;;25.50;4.90;;;;;;;10.05;73.53;100867.78;5079579;28;20036;-87
2023/04/11 02:29:01;;;;;;;14.80;4.65;;;;;;;9.98;73.95;100861.03;5081896;28;20055;-88
2023/04/11 02:31:27;;;;;;;22.60;5.05;;;;;;;9.98;73.85;100861.03;5084249;28;20514;-88
2023/04/11 02:33:52;;;;;;;24.02;5.43;;;;;;;10.07;73.84;100863.31;5086183;28;20024;-87
2023/04/11 02:36:17;;;;;;;28.17;4.82;;;;;;;10.21;73.29;100876.88;5083586;28;20017;-88
2023/04/11 02:38:42;;;;;;;22.33;4.57;;;;;;;10.23;73.18;100872.38;5097498;28;21351;-87
2023/04/11 02:41:08;;;;;;;19.15;4.80;;;;;;;10.23;72.37;100864.44;5086756;28;20031;-87
2023/04/11 02:43:33;;;;;;;20.23;5.35;;;;;;;10.22;72.34;100869.81;5083826;28;20427;-87
2023/04/11 02:45:59;;;;;;;22.10;6.20;;;;;;;10.20;72.49;100864.56;5074113;28;20472;-88
2023/04/11 02:48:24;;;;;;;23.67;3.92;;;;;;;10.26;72.40;100870.56;5081698;28;20521;-88
2023/04/11 02:50:50;;;;;;;21.88;4.72;;;;;;;10.26;72.52;100873.19;5072704;28;20020;-87
2023/04/11 02:53:15;;;;;;;26.20;4.45;;;;;;;10.25;71.81;100879.41;5085476;28;20029;-88
2023/04/11 02:55:40;;;;;;;27.27;4.80;;;;;;;10.18;71.86;100876.97;5085205;28;20510;-88
2023/04/11 02:58:06;;;;;;;19.98;4.50;;;;;;;10.10;71.80;100872.91;5085361;28;20040;-87
2023/04/11 03:00:31;;;;;;;20.75;4.57;;;;;;;10.13;71.66;100873.66;5088330;28;20036;-88
2023/04/11 03:02:57;;;;;;;21.20;4.30;;;;;;;10.07;71.86;100873.00;5087170;28;20028;-87
2023/04/11 03:05:23;;;;;;;15.82;3.28;;;;;;;10.02;71.38;100883.75;5089112;28;20544;-88
2023/04/11 03:07:48;;;;;;;20.02;4.35;;;;;;;10.02;71.81;100877.59;5102125;27;20084;-87
2023/04/11 03:10:13;;;;;;;18.85;3.60;;;;;;;10.00;71.63;100876.81;5087763;28;20058;-88
2023/04/11 03:12:39;;;;;;;21.15;4.20;;;;;;;9.97;71.74;100877.75;5080898;28;20040;-88
2023/04/11 03:15:04;;;;;;;21.45;4.30;;;;;;;10.02;71.71;100891.66;5078833;28;20043;-87
2023/04/11 03:17:30;;;;;;;21.63;3.60;;;;;;;10.04;71.86;100896.91;5082097;28;20039;-88
2023/04/11 03:19:55;;;;;;;18.98;3.58;;;;;;;10.03;71.57;100884.63;5077870;28;20035;-87
2023/04/11 03:22:22;;;;;;;22.40;3.83;;;;;;;10.02;71.75;100883.75;5075604;28;20059;-88
2023/04/11 03:24:48;;;;;;;16.70;3.13;;;;;;;10.09;70.67;100908.16;5073130;28;20020;-88
2023/04/11 03:27:14;;;;;;;17.98;3.58;;;;;;;10.08;70.94;100917.00;5086845;28;20032;-88
2023/04/11 03:29:39;;;;;;;16.23;2.90;;;;;;;10.06;70.91;100906.47;5090894;28;20123;-88
2023/04/11 03:32:05;;;;;;;12.32;3.10;;;;;;;10.08;70.93;100912.59;5080044;28;20126;-88
2023/04/11 03:34:30;;;;;;;17.05;2.47;;;;;;;10.08;70.34;100909.09;5079136;28;20031;-88
2023/04/11 03:36:55;;;;;;;10.05;2.33;;;;;;;10.09;69.69;100909.03;5082056;28;20031;-87
2023/04/11 03:39:21;;;;;;;17.48;2.47;;;;;;;10.12;70.02;100910.69;5098611;27;20399;-87
2023/04/11 03:41:46;;;;;;;13.43;1.80;;;;;;;10.14;69.55;100912.34;5087754;28;20031;-88
2023/04/11 03:44:12;;;;;;;18.73;2.85;;;;;;;10.10;69.81;100916.03;5091164;28;20041;-88
2023/04/11 03:46:37;;;;;;;13.23;2.45;;;;;;;10.17;69.64;100928.09;5074581;28;20052;-88
2023/04/11 03:49:03;;;;;;;16.95;2.78;;;;;;;10.15;69.53;100932.56;5072910;28;20054;-88
2023/04/11 03:51:28;;;;;;;13.43;2.15;;;;;;;10.10;69.44;100926.59;5073661;28;20468;-89
2023/04/11 03:53:54;;;;;;;13.55;2.42;;;;;;;10.12;69.25;100932.69;5088418;28;20028;-87
2023/04/11 03:56:19;;;;;;;9.35;1.75;;;;;;;10.04;68.86;100912.75;5075330;28;20057;-88
2023/04/11 03:58:45;;;;;;;9.02;2.75;;;;;;;10.05;69.08;100920.63;5093252;27;20039;-87
2023/04/11 04:01:10;;;;;;;13.25;2.95;;;;;;;10.03;68.80;100918.97;5079185;28;20044;-88
2023/04/11 04:03:35;;;;;;;11.75;2.70;;;;;;;9.96;69.16;100926.22;5089785;28;20054;-87
2023/04/11 04:06:00;;;;;;;12.35;2.45;;;;;;;9.95;69.17;100933.28;5089593;28;20123;-87
2023/04/11 04:08:26;;;;;;;11.07;2.03;;;;;;;9.81;69.44;100919.72;5074343;28;20047;-88
2023/04/11 04:10:51;;;;;;;12.63;2.65;;;;;;;9.92;68.72;100943.97;5084572;28;20016;-89
2023/04/11 04:13:16;;;;;;;18.25;2.80;;;;;;;9.87;68.72;100930.06;5078165;28;20106;-88
2023/04/11 04:15:42;;;;;;;18.55;2.72;;;;;;;9.88;68.84;100938.84;5083389;28;20027;-87
2023/04/11 04:18:07;;;;;;;11.25;1.60;;;;;;;9.77;68.64;100933.09;5096737;28;20479;-88
2023/04/11 04:20:32;;;;;;;12.63;2.70;;;;;;;9.76;69.32;100931.38;5095993;28;20024;-88
2023/04/11 04:22:59;;;;;;;9.88;2.55;;;;;;;9.64;69.54;100938.78;5079465;28;20070;-87
2023/04/11 04:25:24;;;;;;;18.08;3.65;;;;;;;9.44;69.80;100913.09;5075399;28;20036;-87
2023/04/11 04:27:52;;;;;;;8.43;2.15;;;;;;;9.53;69.96;100935.66;5087168;28;20077;-88
2023/04/11 04:30:18;;;;;;;9.07;2.42;;;;;;;9.45;70.20;100933.28;5078816;28;20422;-88
2023/04/11 04:32:44;;;;;;;15.98;3.53;;;;;;;9.52;70.45;100948.94;5084430;28;20073;-88
2023/04/11 04:35:12;;;;;;;9.05;2.65;;;;;;;9.50;70.46;100962.16;5075930;28;20021;-88
2023/04/11 04:37:44;;;;;;;15.10;3.03;;;;;;;9.43;70.77;100966.78;5083081;28;20016;-87
2023/04/11 04:40:12;;;;;;;15.35;3.97;;;;;;;9.47;70.77;100974.63;5069522;28;20063;-88
2023/04/11 04:42:40;;;;;;;18.65;2.97;;;;;;;9.33;70.76;100949.53;5084858;28;20472;-88
2023/04/11 04:45:06;;;;;;;14.48;2.50;;;;;;;9.41;70.85;100975.66;5080475;28;20031;-87
2023/04/11 04:47:34;;;;;;;21.63;2.95;;;;;;;9.27;70.84;100959.41;5087586;28;20378;-88
2023/04/11 04:50:00;;;;;;;15.82;2.85;;;;;;;9.28;71.12;100969.94;5090746;28;20043;-87
2023/04/11 04:52:26;;;;;;;12.38;2.80;;;;;;;9.23;71.46;100969.19;5088101;28;20518;-87
2023/04/11 04:54:56;;;;;;;12.48;2.30;;;;;;;9.29;71.71;100984.84;5083811;28;20030;-87
2023/04/11 04:57:28;;;;;;;18.67;2.90;;;;;;;9.16;71.62;100983.50;5085126;28;20447;-87
2023/04/11 04:59:54;;;;;;;12.32;2.38;;;;;;;9.18;71.50;100985.19;5098574;28;20551;-87
2023/04/11 05:02:20;;;;;;;14.85;2.90;;;;;;;9.12;72.15;100990.66;5085968;28;20144;-88
2023/04/11 05:04:47;;;;;;;15.13;2.47;;;;;;;9.20;71.64;101011.53;5084797;28;20455;-88
2023/04/11 05:07:13;;;;;;;16.00;3.17;;;;;;;9.13;71.73;101002.06;5084851;28;20023;-88
2023/04/11 05:09:38;;;;;;;13.85;3.10;;;;;;;9.10;71.92;101016.22;5091926;27;20019;-87
2023/04/11 05:12:04;;;;;;;10.13;2.17;;;;;;;9.17;72.08;101017.75;5093595;28;20036;-88
2023/04/11 05:14:29;;;;;;;14.63;2.60;;;;;;;9.07;72.32;101005.75;5074943;28;20043;-87
2023/04/11 05:16:55;;;;;;;11.75;2.33;;;;;;;9.07;72.24;101021.59;5074987;28;20028;-88
2023/04/11 05:19:20;;;;;;;13.02;2.47;;;;;;;9.05;72.06;101022.56;5076097;28;20037;-87
2023/04/11 05:21:45;;;;;;;13.65;2.42;;;;;;;8.99;72.21;101014.81;5078964;28;20024;-88
2023/04/11 05:24:11;;;;;;;15.95;2.30;;;;;;;8.93;72.36;101018.53;5096535;28;20020;-88
2023/04/11 05:26:36;;;;;;;14.52;2.55;;;;;;;9.00;71.90;101022.72;5079650;28;20266;-87
2023/04/11 05:29:01;;;;;;;15.00;2.42;;;;;;;8.99;72.31;101028.88;5077377;28;20491;-87
2023/04/11 05:31:27;;;;;;;12.23;3.03;;;;;;;8.91;72.56;101020.34;5078660;28;20028;-88
2023/04/11 05:33:53;;;;;;;12.65;2.20;;;;;;;9.02;72.46;101039.34;5082414;28;20029;-87
2023/04/11 05:36:18;;;;;;;11.30;2.33;;;;;;;8.99;72.60;101039.41;5086862;28;20031;-87
2023/04/11 05:38:44;;;;;;;7.78;2.10;;;;;;;8.92;72.53;101024.72;5071434;28;20025;-88
2023/04/11 05:41:10;;;;;;;9.25;2.88;;;;;;;9.00;72.54;101038.53;5071646;28;20032;-87
2023/04/11 05:43:36;;;;;;;13.43;2.47;;;;;;;8.99;72.47;101028.00;5076460;28;20097;-88
2023/04/11 05:46:01;;;;;;;11.48;2.45;;;;;;;9.03;72.20;101045.47;5076960;28;20032;-88
2023/04/11 05:48:27;;;;;;;16.38;2.33;;;;;;;9.06;72.22;101048.88;5078130;28;20032;-88
2023/04/11 05:50:52;;;;;;;10.68;2.13;;;;;;;9.19;72.22;101071.34;5067543;28;20251;-88
2023/04/11 05:53:18;;;;;;;11.98;2.38;;;;;;;9.15;71.91;101066.22;5079122;28;20024;-87
2023/04/11 05:55:43;;;;;;;12.27;2.35;;;;;;;9.22;71.84;101072.13;5079047;28;20066;-87
2023/04/11 05:58:09;;;;;;;9.15;2.35;;;;;;;9.14;71.81;101064.47;5072071;28;20024;-87
2023/04/11 06:00:37;;;;;;;11.35;1.98;;;;;;;9.33;71.28;101086.75;5085721;28;20036;-88
2023/04/11 06:03:03;;;;;;;13.68;2.25;;;;;;;9.46;71.05;101074.00;5087161;28;20020;-88
2023/04/11 06:05:30;;;;;;;9.30;1.85;;;;;;;9.59;71.29;101082.41;5076356;28;20076;-87
2023/04/11 06:07:58;;;;;;;10.35;1.90;;;;;;;9.51;70.21;101058.88;5080085;28;20020;-88
2023/04/11 06:10:25;;;;;;;8.98;2.17;;;;;;;9.60;70.25;101074.44;5086634;28;20655;-87
2023/04/11 06:12:50;;;;;;;7.45;2.08;;;;;;;9.68;69.94;101090.03;5080551;28;20044;-88
2023/04/11 06:15:16;;;;;;;11.65;2.42;;;;;;;9.60;70.09;101084.97;5085554;28;20028;-88
2023/04/11 06:17:41;;;;;;;9.00;2.45;;;;;;;9.57;69.98;101085.09;5074818;28;20035;-88
2023/04/11 06:20:07;;;;;;;12.95;3.88;;;;;;;9.56;70.55;101077.22;5081415;28;20032;-88
2023/04/11 06:22:33;;;;;;;13.00;1.88;;;;;;;9.56;70.05;101088.66;5080438;28;20402;-88
2023/04/11 06:24:58;;;;;;;13.18;2.72;;;;;;;9.47;70.63;101080.19;5071314;28;20020;-88
2023/04/11 06:27:23;;;;;;;12.10;2.70;;;;;;;9.59;70.10;101093.81;5076503;28;20065;-88
2023/04/11 06:29:49;;;;;;;12.32;2.95;;;;;;;9.65;70.34;101087.47;5092669;28;20683;-88
2023/04/11 06:32:15;;;;;;;11.82;2.15;;;;;;;9.71;70.24;101092.56;5094174;28;20118;-87
2023/04/11 06:34:40;;;;;;;14.32;2.40;;;;;;;9.76;70.24;101095.94;5083759;28;20483;-88
2023/04/11 06:37:07;;;;;;;11.32;2.63;;;;;;;9.75;70.08;101091.56;5076396;28;20044;-88
2023/04/11 06:39:33;;;;;;;11.30;2.53;;;;;;;9.80;69.80;101091.41;5082822;28;20036;-88
2023/04/11 06:41:58;;;;;;;8.32;2.67;;;;;;;9.78;69.37;101094.09;5091100;28;20029;-88
2023/04/11 06:44:24;;;;;;;10.75;2.30;;;;;;;9.95;69.43;101106.75;5084034;28;20069;-88
2023/04/11 06:46:50;;;;;;;13.20;2.15;;;;;;;10.00;69.97;101099.53;5100165;28;20020;-88
2023/04/11 06:49:17;;;;;;;6.15;2.10;;;;;;;10.08;69.03;101109.84;5083747;28;20023;-88
2023/04/11 06:51:42;;;;;;;10.45;2.47;;;;;;;10.17;68.52;101109.53;5081537;28;20059;-88
2023/04/11 06:54:09;;;;;;;6.15;1.90;;;;;;;10.16;68.65;101105.16;5085798;28;20051;-86
2023/04/11 06:56:34;;;;;;;9.27;1.98;;;;;;;10.21;67.73;101112.03;5077238;28;20032;-86
2023/04/11 06:59:00;;;;;;;11.20;2.05;;;;;;;10.27;67.53;101113.63;5074149;28;20028;-86
2023/04/11 07:01:29;;;;;;;11.52;2.28;;;;;;;10.43;67.15;101127.16;5081903;28;20031;-86
2023/04/11 07:03:55;;;;;;;8.98;1.92;;;;;;;10.48;67.83;101112.84;5082079;28;20059;-85
2023/04/11 07:06:21;;;;;;;12.70;2.00;;;;;;;10.55;67.50;101121.44;5076302;28;20020;-85
2023/04/11 07:08:46;;;;;;;26.15;2.92;;;;;;;10.61;66.67;101117.72;5092320;28;20085;-86
2023/04/11 07:11:11;;;;;;;10.93;2.53;;;;;;;10.69;66.16;101129.75;5084134;28;20059;-86
2023/04/11 07:13:37;;;;;;;12.93;2.20;;;;;;;10.61;66.41;101123.84;5079468;28;20040;-86
2023/04/11 07:16:02;;;;;;;9.60;2.35;;;;;;;10.71;65.35;101134.97;5073224;28;20061;-86
2023/04/11 07:18:29;;;;;;;10.45;2.33;;;;;;;10.67;65.34;101130.69;5096556;28;20034;-85
2023/04/11 07:20:55;;;;;;;13.82;2.50;;;;;;;10.83;64.76;101137.19;5085164;28;20131;-86
2023/04/11 07:23:20;;;;;;;8.63;2.78;;;;;;;10.97;65.44;101150.75;5085838;28;20148;-86
2023/04/11 07:25:46;;;;;;;12.73;3.55;;;;;;;11.23;65.27;101157.72;5074743;28;20036;-87
2023/04/11 07:28:11;;;;;;;9.23;2.10;;;;;;;11.32;63.51;101147.69;5084965;28;20028;-86
2023/04/11 07:30:37;;;;;;;10.32;1.85;;;;;;;11.45;63.04;101160.41;5094001;28;20027;-86
2023/04/11 07:33:02;;;;;;;10.13;2.40;;;;;;;11.24;63.31;101156.81;5103415;27;20484;-86
2023/04/11 07:35:28;;;;;;;10.90;2.55;;;;;;;11.35;63.99;101160.84;5085074;28;20032;-86
2023/04/11 07:37:55;;;;;;;12.07;2.60;;;;;;;11.51;63.47;101159.31;5093348;28;20028;-86
2023/04/11 07:40:20;;;;;;;9.95;2.22;;;;;;;11.39;62.26;101152.72;5088185;28;20035;-86
2023/04/11 07:42:46;;;;;;;12.70;3.05;;;;;;;11.48;62.94;101170.03;5088597;28;20028;-86
2023/04/11 07:45:11;;;;;;;11.23;2.85;;;;;;;11.61;62.24;101165.09;5078558;28;20107;-86
2023/04/11 07:47:37;;;;;;;10.40;2.83;;;;;;;11.58;62.05;101159.94;5087127;28;20083;-86
2023/04/11 07:50:03;;;;;;;9.25;2.67;;;;;;;11.68;62.65;101163.94;5085384;28;20050;-86
2023/04/11 07:52:28;;;;;;;8.18;1.98;;;;;;;11.84;61.44;101162.44;5092020;28;20028;-86
2023/04/11 07:54:54;;;;;;;13.00;2.45;;;;;;;11.90;61.09;101171.94;5091219;28;20038;-86
2023/04/11 07:57:20;;;;;;;10.80;2.80;;;;;;;11.81;59.72;101161.69;5082014;28;20137;-87
2023/04/11 07:59:45;;;;;;;10.50;2.63;;;;;;;11.98;59.38;101153.94;5084069;28;20545;-86
2023/04/11 08:02:10;;;;;;;8.68;2.28;;;;;;;12.18;59.50;101156.63;5093857;27;20031;-86
2023/04/11 08:04:36;;;;;;;14.27;2.38;;;;;;;12.38;57.81;101173.50;5087567;28;20027;-86
2023/04/11 08:07:01;;;;;;;5.97;2.22;;;;;;;12.62;58.08;101167.13;5085758;28;20031;-86
2023/04/11 08:09:27;;;;;;;8.60;2.17;;;;;;;12.67;56.06;101181.03;5084529;28;20028;-86
2023/04/11 08:11:53;;;;;;;7.45;2.15;;;;;;;12.74;56.10;101177.22;5085487;28;20054;-86
2023/04/11 08:14:18;;;;;;;11.98;2.17;;;;;;;12.83;57.25;101183.91;5085023;28;20036;-87
2023/04/11 08:16:43;;;;;;;10.00;1.90;;;;;;;13.10;56.42;101188.91;5092432;28;20012;-86
2023/04/11 08:19:10;;;;;;;6.07;1.70;;;;;;;13.52;53.25;101191.41;5075616;28;20024;-86
2023/04/11 08:21:35;;;;;;;9.23;2.40;;;;;;;13.49;54.16;101207.50;5089344;28;20023;-86
2023/04/11 08:24:01;;;;;;;9.25;2.15;;;;;;;13.62;55.43;101199.84;5085582;28;20081;-86
2023/04/11 08:26:26;;;;;;;9.63;2.08;;;;;;;13.43;54.77;101190.06;5076640;28;20023;-86
2023/04/11 08:28:51;;;;;;;7.80;1.75;;;;;;;13.72;52.79;101199.31;5086194;28;20030;-87
2023/04/11 08:31:17;;;;;;;7.07;1.70;;;;;;;13.88;52.23;101218.03;5083694;28;20023;-86
2023/04/11 08:33:42;;;;;;;10.63;2.38;;;;;;;13.79;51.14;101207.84;5080469;28;20028;-87
2023/04/11 08:36:08;;;;;;;7.88;1.63;;;;;;;13.32;52.92;101220.69;5079431;28;20027;-87
2023/04/11 08:38:38;;;;;;;7.22;1.70;;;;;;;13.07;52.71;101221.78;5095836;28;20480;-86
2023/04/11 08:41:03;;;;;;;12.45;1.88;;;;;;;13.21;51.78;101218.50;5092777;28;20028;-86
2023/04/11 08:43:32;;;;;;;8.88;2.17;;;;;;;13.77;50.58;101229.19;5088253;28;20118;-86
2023/04/11 08:46:00;;;;;;;9.30;2.00;;;;;;;13.98;48.91;101234.41;5087468;28;20467;-87
2023/04/11 08:48:25;;;;;;;6.07;1.95;;;;;;;14.11;50.27;101240.00;5079006;28;20032;-87
2023/04/11 08:50:51;;;;;;;6.70;1.55;;;;;;;13.85;48.46;101222.63;5081848;28;20529;-87
2023/04/11 08:53:20;;;;;;;8.30;2.58;;;;;;;14.01;48.99;101224.50;5090516;28;20035;-86
2023/04/11 08:55:46;;;;;;;9.95;1.63;;;;;;;14.48;47.81;101231.09;5091801;28;20047;-86
2023/04/11 08:58:12;;;;;;;9.02;2.20;;;;;;;14.52;47.45;101222.91;5086699;28;20491;-86
2023/04/11 09:00:37;;;;;;;11.82;2.25;;;;;;;14.28;46.90;101224.94;5085991;28;20024;-87
2023/04/11 09:03:05;;;;;;;7.88;1.65;;;;;;;13.93;48.28;101215.16;5088249;28;20060;-86
2023/04/11 09:05:35;;;;;;;6.70;1.45;;;;;;;14.40;49.14;101231.44;5088789;28;20103;-87
2023/04/11 09:08:03;;;;;;;5.75;1.60;;;;;;;14.71;46.45;101206.84;5078439;28;20024;-86
2023/04/11 09:10:29;;;;;;;8.07;1.63;;;;;;;15.22;46.95;101218.38;5084867;28;20466;-87
2023/04/11 09:12:55;;;;;;;7.32;1.88;;;;;;;15.18;46.61;101221.28;5074282;28;20044;-87
2023/04/11 09:15:23;;;;;;;7.55;1.55;;;;;;;15.42;45.32;101224.41;5078309;28;20066;-87
2023/04/11 09:17:48;;;;;;;11.70;2.10;;;;;;;15.72;45.96;101221.94;5087775;28;20508;-86
2023/04/11 09:20:24;;;;;;;7.65;2.08;;;;;;;16.15;44.96;101225.69;5086421;28;20154;-87
2023/04/11 09:22:51;;;;;;;6.18;1.60;;;;;;;16.03;44.83;101229.03;5075378;28;20024;-87
2023/04/11 09:25:21;;;;;;;7.43;1.73;;;;;;;15.45;46.01;101226.94;5077802;28;20102;-87
2023/04/11 09:27:47;;;;;;;11.35;1.83;;;;;;;15.25;45.62;101218.22;5092060;28;20480;-87
2023/04/11 09:30:21;;;;;;;8.02;1.83;;;;;;;15.31;46.16;101223.19;5074716;28;20486;-86
2023/04/11 09:32:47;;;;;;;11.57;1.88;;;;;;;15.71;44.76;101225.50;5078124;28;20496;-86
2023/04/11 09:35:17;;;;;;;6.88;1.42;;;;;;;16.37;43.10;101221.75;5078898;28;20024;-87
2023/04/11 09:37:51;;;;;;;6.15;1.70;;;;;;;17.27;42.36;101224.38;5077701;28;20032;-87
2023/04/11 09:40:20;;;;;;;6.78;1.58;;;;;;;17.50;40.73;101229.16;5097373;27;20031;-86
2023/04/11 09:42:47;;;;;;;8.20;1.52;;;;;;;16.60;40.60;101226.66;5078792;28;20107;-87
2023/04/11 09:45:17;;;;;;;9.95;1.90;;;;;;;16.80;43.20;101233.50;5081464;28;20036;-87
2023/04/11 09:47:44;;;;;;;5.03;1.50;;;;;;;17.17;41.35;101228.59;5080342;28;20040;-87
2023/04/11 09:50:10;;;;;;;4.93;1.33;;;;;;;17.39;38.92;101225.44;5078942;28;20020;-88
2023/04/11 09:52:37;;;;;;;7.95;1.60;;;;;;;17.51;37.57;101233.53;5075275;28;20036;-87
2023/04/11 09:55:03;;;;;;;5.82;1.30;;;;;;;17.25;39.73;101226.28;5084539;28;20027;-87
2023/04/11 09:57:30;;;;;;;5.63;1.50;;;;;;;17.53;39.06;101220.06;5077817;28;20039;-87
2023/04/11 09:59:57;;;;;;;4.47;1.30;;;;;;;17.94;36.44;101241.53;5077507;28;20027;-88
2023/04/11 10:02:22;;;;;;;6.53;1.70;;;;;;;18.55;35.90;101233.94;5078042;28;20126;-88
2023/04/11 10:04:48;;;;;;;6.05;1.30;;;;;;;18.55;34.49;101231.28;5078788;28;20126;-87
2023/04/11 10:07:15;;;;;;;8.73;1.60;;;;;;;18.83;34.07;101231.16;5074467;28;20063;-87
2023/04/11 10:09:44;;;;;;;4.53;1.27;;;;;;;19.08;33.09;101237.50;5079104;28;20028;-87
2023/04/11 10:12:09;;;;;;;7.57;1.40;;;;;;;19.02;33.20;101237.91;5092372;28;20041;-88
2023/04/11 10:14:37;;;;;;;3.00;1.25;;;;;;;19.42;34.48;101221.72;5095071;28;20028;-88
2023/04/11 10:17:17;;;;;;;6.10;1.30;;;;;;;19.40;34.99;101229.00;5082627;28;20536;-88
2023/04/11 10:19:44;;;;;;;5.30;1.70;;;;;;;18.47;34.61;101247.03;5078174;28;20514;-88
2023/04/11 10:22:10;;;;;;;6.57;1.45;;;;;;;18.60;34.34;101235.38;5072163;28;20035;-87
2023/04/11 10:24:36;;;;;;;2.97;1.52;;;;;;;17.60;35.85;101237.47;5084001;28;20038;-88
2023/04/11 10:27:03;;;;;;;5.22;1.85;;;;;;;17.54;37.23;101238.72;5081364;28;20033;-88
2023/04/11 10:29:39;;;;;;;4.10;1.38;;;;;;;18.63;37.23;101231.63;5081304;28;20020;-88
2023/04/11 10:32:11;;;;;;;6.72;1.83;;;;;;;18.83;35.97;101233.81;5081888;28;20070;-88
2023/04/11 10:34:38;;;;;;;8.90;1.40;;;;;;;19.14;34.65;101231.72;5080757;28;20069;-88
2023/04/11 10:37:07;;;;;;;8.55;1.58;;;;;;;19.13;33.12;101237.19;5080818;28;20031;-88
2023/04/11 10:39:50;;;;;;;10.10;1.55;;;;;;;19.31;34.66;101247.47;5083159;28;20031;-88
2023/04/11 10:42:30;;;;;;;3.97;1.02;;;;;;;19.02;34.44;101240.59;5081086;28;20444;-88
2023/04/11 10:45:14;;;;;;;5.05;1.10;;;;;;;19.20;33.36;101239.31;5083487;28;20044;-88
2023/04/11 10:47:40;;;;;;;5.63;1.25;;;;;;;18.93;34.99;101230.50;5076154;28;20057;-88
2023/04/11 10:50:27;;;;;;;4.53;1.13;;;;;;;19.26;34.63;101236.22;5084760;28;20356;-88
2023/04/11 10:53:00;;;;;;;4.28;1.10;;;;;;;19.30;31.64;101224.28;5087702;28;20063;-88
2023/04/11 10:55:27;;;;;;;4.75;1.30;;;;;;;19.10;32.13;101239.09;5079941;28;20441;-88
2023/04/11 10:58:15;;;;;;;5.13;1.13;;;;;;;19.65;33.59;101241.56;5079115;28;20030;-88
2023/04/11 11:00:53;;;;;;;6.13;1.13;;;;;;;19.94;32.89;101242.16;5084040;28;20040;-88
2023/04/11 11:03:20;;;;;;;3.83;1.23;;;;;;;19.52;31.46;101234.38;5095056;28;20020;-89
2023/04/11 11:05:46;;;;;;;3.25;1.10;;;;;;;19.60;32.16;101249.94;5098479;28;20028;-88
2023/04/11 11:08:12;;;;;;;4.88;1.27;;;;;;;19.52;32.79;101241.56;5093964;28;20654;-89
2023/04/11 11:10:45;;;;;;;2.95;1.00;;;;;;;19.73;30.19;101241.88;5084209;28;20095;-88
2023/04/11 11:13:14;;;;;;;3.40;1.20;;;;;;;19.75;32.32;101230.06;5088488;28;20071;-88
2023/04/11 11:15:46;;;;;;;5.78;1.13;;;;;;;19.94;31.87;101234.09;5081923;28;20020;-88
2023/04/11 11:18:14;;;;;;;7.50;1.30;;;;;;;19.94;31.02;101242.16;5091640;28;20051;-88